sensor_id;sensor_type;location;lat;lon;timestamp;P1;durP1;ratioP1;P2;durP2;ratioP2
19623;SDS011;9959;49.798;9.928;2022-08-19T00:01:46;33.08;;;16.45;;
19623;SDS011;9959;49.798;9.928;2022-08-19T00:04:20;30.48;;;15.68;;
19623;SDS011;9959;49.798;9.928;2022-08-19T00:06:50;29.95;;;16.08;;
19623;SDS011;9959;49.798;9.928;2022-08-19T00:09:19;31.35;;;16.08;;
19623;SDS011;9959;49.798;9.928;2022-08-19T00:11:50;30.90;;;16.65;;
19623;SDS011;9959;49.798;9.928;2022-08-19T00:14:18;31.05;;;16.50;;
19623;SDS011;9959;49.798;9.928;2022-08-19T00:16:48;35.58;;;16.92;;
19623;SDS011;9959;49.798;9.928;2022-08-19T00:19:17;33.35;;;16.98;;
19623;SDS011;9959;49.798;9.928;2022-08-19T00:21:45;30.65;;;16.15;;
19623;SDS011;9959;49.798;9.928;2022-08-19T00:24:14;28.20;;;15.98;;
19623;SDS011;9959;49.798;9.928;2022-08-19T00:26:43;29.42;;;15.55;;
19623;SDS011;9959;49.798;9.928;2022-08-19T00:29:14;35.58;;;16.40;;
19623;SDS011;9959;49.798;9.928;2022-08-19T00:31:44;30.00;;;16.02;;
19623;SDS011;9959;49.798;9.928;2022-08-19T00:34:13;31.90;;;16.05;;
19623;SDS011;9959;49.798;9.928;2022-08-19T00:36:42;30.63;;;15.65;;
19623;SDS011;9959;49.798;9.928;2022-08-19T00:39:11;31.83;;;16.45;;
19623;SDS011;9959;49.798;9.928;2022-08-19T00:41:46;30.52;;;15.35;;
19623;SDS011;9959;49.798;9.928;2022-08-19T00:44:18;30.90;;;15.93;;
19623;SDS011;9959;49.798;9.928;2022-08-19T00:46:52;31.63;;;16.35;;
19623;SDS011;9959;49.798;9.928;2022-08-19T00:49:24;30.25;;;16.35;;
19623;SDS011;9959;49.798;9.928;2022-08-19T00:51:56;29.30;;;15.45;;
19623;SDS011;9959;49.798;9.928;2022-08-19T00:54:28;29.10;;;15.23;;
19623;SDS011;9959;49.798;9.928;2022-08-19T00:56:57;30.38;;;15.35;;
19623;SDS011;9959;49.798;9.928;2022-08-19T00:59:28;33.13;;;16.77;;
19623;SDS011;9959;49.798;9.928;2022-08-19T01:02:16;29.35;;;14.80;;
19623;SDS011;9959;49.798;9.928;2022-08-19T01:04:44;31.33;;;15.15;;
19623;SDS011;9959;49.798;9.928;2022-08-19T01:07:12;28.90;;;15.65;;
19623;SDS011;9959;49.798;9.928;2022-08-19T01:09:45;31.10;;;15.43;;
19623;SDS011;9959;49.798;9.928;2022-08-19T01:12:13;32.63;;;16.25;;
19623;SDS011;9959;49.798;9.928;2022-08-19T01:14:43;30.48;;;16.38;;
19623;SDS011;9959;49.798;9.928;2022-08-19T01:17:12;31.65;;;15.30;;
19623;SDS011;9959;49.798;9.928;2022-08-19T01:19:42;33.67;;;15.95;;
19623;SDS011;9959;49.798;9.928;2022-08-19T01:22:14;28.48;;;14.75;;
19623;SDS011;9959;49.798;9.928;2022-08-19T01:24:55;32.78;;;15.57;;
19623;SDS011;9959;49.798;9.928;2022-08-19T01:27:24;32.13;;;16.25;;
19623;SDS011;9959;49.798;9.928;2022-08-19T01:29:54;32.42;;;15.60;;
19623;SDS011;9959;49.798;9.928;2022-08-19T01:32:23;33.55;;;14.32;;
19623;SDS011;9959;49.798;9.928;2022-08-19T01:34:59;30.15;;;14.75;;
19623;SDS011;9959;49.798;9.928;2022-08-19T01:37:28;34.20;;;14.68;;
19623;SDS011;9959;49.798;9.928;2022-08-19T01:39:58;32.53;;;15.30;;
19623;SDS011;9959;49.798;9.928;2022-08-19T01:42:29;31.63;;;15.40;;
19623;SDS011;9959;49.798;9.928;2022-08-19T01:44:58;26.75;;;15.38;;
19623;SDS011;9959;49.798;9.928;2022-08-19T01:47:26;26.83;;;14.38;;
19623;SDS011;9959;49.798;9.928;2022-08-19T01:49:54;30.83;;;15.15;;
19623;SDS011;9959;49.798;9.928;2022-08-19T01:52:22;28.50;;;14.90;;
19623;SDS011;9959;49.798;9.928;2022-08-19T01:54:50;29.80;;;15.45;;
19623;SDS011;9959;49.798;9.928;2022-08-19T01:57:19;28.38;;;14.80;;
19623;SDS011;9959;49.798;9.928;2022-08-19T01:59:47;28.33;;;14.40;;
19623;SDS011;9959;49.798;9.928;2022-08-19T02:02:16;28.23;;;14.43;;
19623;SDS011;9959;49.798;9.928;2022-08-19T02:04:44;27.85;;;14.88;;
19623;SDS011;9959;49.798;9.928;2022-08-19T02:07:13;32.80;;;15.07;;
19623;SDS011;9959;49.798;9.928;2022-08-19T02:09:41;26.85;;;14.70;;
19623;SDS011;9959;49.798;9.928;2022-08-19T02:12:09;27.10;;;14.43;;
19623;SDS011;9959;49.798;9.928;2022-08-19T02:14:39;31.05;;;15.07;;
19623;SDS011;9959;49.798;9.928;2022-08-19T02:17:07;29.83;;;15.27;;
19623;SDS011;9959;49.798;9.928;2022-08-19T02:19:35;28.00;;;14.60;;
19623;SDS011;9959;49.798;9.928;2022-08-19T02:22:07;27.50;;;14.00;;
19623;SDS011;9959;49.798;9.928;2022-08-19T02:24:35;27.10;;;13.85;;
19623;SDS011;9959;49.798;9.928;2022-08-19T02:27:03;28.60;;;13.82;;
19623;SDS011;9959;49.798;9.928;2022-08-19T02:29:32;29.48;;;15.77;;
19623;SDS011;9959;49.798;9.928;2022-08-19T02:32:01;26.73;;;14.57;;
19623;SDS011;9959;49.798;9.928;2022-08-19T02:34:30;26.17;;;13.93;;
19623;SDS011;9959;49.798;9.928;2022-08-19T02:36:58;29.52;;;14.52;;
19623;SDS011;9959;49.798;9.928;2022-08-19T02:39:29;32.92;;;15.57;;
19623;SDS011;9959;49.798;9.928;2022-08-19T02:41:56;29.40;;;15.25;;
19623;SDS011;9959;49.798;9.928;2022-08-19T02:44:25;29.65;;;15.02;;
19623;SDS011;9959;49.798;9.928;2022-08-19T02:46:57;27.65;;;14.50;;
19623;SDS011;9959;49.798;9.928;2022-08-19T02:49:26;31.10;;;15.35;;
19623;SDS011;9959;49.798;9.928;2022-08-19T02:52:00;26.80;;;14.35;;
19623;SDS011;9959;49.798;9.928;2022-08-19T02:54:28;26.90;;;15.15;;
19623;SDS011;9959;49.798;9.928;2022-08-19T02:56:56;29.63;;;15.45;;
19623;SDS011;9959;49.798;9.928;2022-08-19T02:59:24;27.70;;;14.75;;
19623;SDS011;9959;49.798;9.928;2022-08-19T03:01:52;29.95;;;15.55;;
19623;SDS011;9959;49.798;9.928;2022-08-19T03:04:20;34.92;;;14.85;;
19623;SDS011;9959;49.798;9.928;2022-08-19T03:06:50;26.60;;;13.70;;
19623;SDS011;9959;49.798;9.928;2022-08-19T03:09:19;30.77;;;14.82;;
19623;SDS011;9959;49.798;9.928;2022-08-19T03:11:47;26.08;;;14.00;;
19623;SDS011;9959;49.798;9.928;2022-08-19T03:14:18;33.33;;;15.05;;
19623;SDS011;9959;49.798;9.928;2022-08-19T03:16:46;27.13;;;14.80;;
19623;SDS011;9959;49.798;9.928;2022-08-19T03:19:16;31.35;;;14.18;;
19623;SDS011;9959;49.798;9.928;2022-08-19T03:21:46;32.35;;;14.55;;
19623;SDS011;9959;49.798;9.928;2022-08-19T03:24:16;25.42;;;13.80;;
19623;SDS011;9959;49.798;9.928;2022-08-19T03:26:46;25.67;;;14.25;;
19623;SDS011;9959;49.798;9.928;2022-08-19T03:29:16;27.83;;;14.75;;
19623;SDS011;9959;49.798;9.928;2022-08-19T03:31:56;26.00;;;13.52;;
19623;SDS011;9959;49.798;9.928;2022-08-19T03:34:27;26.55;;;14.68;;
19623;SDS011;9959;49.798;9.928;2022-08-19T03:36:57;30.23;;;14.27;;
19623;SDS011;9959;49.798;9.928;2022-08-19T03:39:28;26.70;;;13.65;;
19623;SDS011;9959;49.798;9.928;2022-08-19T03:41:56;26.40;;;14.63;;
19623;SDS011;9959;49.798;9.928;2022-08-19T03:44:46;29.95;;;14.80;;
19623;SDS011;9959;49.798;9.928;2022-08-19T03:47:14;26.20;;;14.95;;
19623;SDS011;9959;49.798;9.928;2022-08-19T03:49:43;25.85;;;13.73;;
19623;SDS011;9959;49.798;9.928;2022-08-19T03:52:11;28.65;;;14.13;;
19623;SDS011;9959;49.798;9.928;2022-08-19T03:54:41;28.08;;;14.48;;
19623;SDS011;9959;49.798;9.928;2022-08-19T03:57:09;30.45;;;14.18;;
19623;SDS011;9959;49.798;9.928;2022-08-19T03:59:37;26.63;;;14.43;;
19623;SDS011;9959;49.798;9.928;2022-08-19T04:02:07;27.13;;;13.60;;
19623;SDS011;9959;49.798;9.928;2022-08-19T04:04:36;26.83;;;14.40;;
19623;SDS011;9959;49.798;9.928;2022-08-19T04:07:06;30.23;;;14.82;;
19623;SDS011;9959;49.798;9.928;2022-08-19T04:09:34;28.52;;;15.00;;
19623;SDS011;9959;49.798;9.928;2022-08-19T04:12:05;28.08;;;15.48;;
19623;SDS011;9959;49.798;9.928;2022-08-19T04:14:33;28.15;;;14.55;;
19623;SDS011;9959;49.798;9.928;2022-08-19T04:17:02;29.10;;;15.15;;
19623;SDS011;9959;49.798;9.928;2022-08-19T04:19:32;25.50;;;14.40;;
19623;SDS011;9959;49.798;9.928;2022-08-19T04:22:01;29.48;;;14.50;;
19623;SDS011;9959;49.798;9.928;2022-08-19T04:24:30;29.17;;;14.25;;
19623;SDS011;9959;49.798;9.928;2022-08-19T04:26:59;29.10;;;15.48;;
19623;SDS011;9959;49.798;9.928;2022-08-19T04:29:28;30.63;;;14.20;;
19623;SDS011;9959;49.798;9.928;2022-08-19T04:31:57;28.33;;;15.23;;
19623;SDS011;9959;49.798;9.928;2022-08-19T04:34:34;26.88;;;14.07;;
19623;SDS011;9959;49.798;9.928;2022-08-19T04:37:23;29.67;;;15.07;;
19623;SDS011;9959;49.798;9.928;2022-08-19T04:39:54;26.52;;;14.73;;
19623;SDS011;9959;49.798;9.928;2022-08-19T04:42:40;32.55;;;15.13;;
19623;SDS011;9959;49.798;9.928;2022-08-19T04:45:10;28.52;;;15.43;;
19623;SDS011;9959;49.798;9.928;2022-08-19T04:47:43;25.20;;;14.07;;
19623;SDS011;9959;49.798;9.928;2022-08-19T04:50:23;27.25;;;14.82;;
19623;SDS011;9959;49.798;9.928;2022-08-19T04:52:51;23.98;;;13.57;;
19623;SDS011;9959;49.798;9.928;2022-08-19T04:55:19;25.95;;;14.27;;
19623;SDS011;9959;49.798;9.928;2022-08-19T04:57:47;26.40;;;13.65;;
19623;SDS011;9959;49.798;9.928;2022-08-19T05:00:18;26.88;;;13.93;;
19623;SDS011;9959;49.798;9.928;2022-08-19T05:02:46;29.40;;;15.20;;
19623;SDS011;9959;49.798;9.928;2022-08-19T05:05:15;28.98;;;14.25;;
19623;SDS011;9959;49.798;9.928;2022-08-19T05:07:43;30.48;;;14.55;;
19623;SDS011;9959;49.798;9.928;2022-08-19T05:10:11;27.20;;;14.07;;
19623;SDS011;9959;49.798;9.928;2022-08-19T05:12:39;29.15;;;14.80;;
19623;SDS011;9959;49.798;9.928;2022-08-19T05:15:08;26.30;;;14.02;;
19623;SDS011;9959;49.798;9.928;2022-08-19T05:17:37;24.13;;;13.52;;
19623;SDS011;9959;49.798;9.928;2022-08-19T05:20:26;24.33;;;13.82;;
19623;SDS011;9959;49.798;9.928;2022-08-19T05:23:12;24.95;;;12.43;;
19623;SDS011;9959;49.798;9.928;2022-08-19T05:25:47;24.50;;;13.50;;
19623;SDS011;9959;49.798;9.928;2022-08-19T05:28:15;24.05;;;13.50;;
19623;SDS011;9959;49.798;9.928;2022-08-19T05:30:43;20.52;;;12.35;;
19623;SDS011;9959;49.798;9.928;2022-08-19T05:33:14;22.83;;;13.20;;
19623;SDS011;9959;49.798;9.928;2022-08-19T05:35:42;18.83;;;11.85;;
19623;SDS011;9959;49.798;9.928;2022-08-19T05:38:10;22.23;;;12.27;;
19623;SDS011;9959;49.798;9.928;2022-08-19T05:40:38;21.70;;;13.25;;
19623;SDS011;9959;49.798;9.928;2022-08-19T05:43:07;22.40;;;12.13;;
19623;SDS011;9959;49.798;9.928;2022-08-19T05:45:38;25.63;;;12.25;;
19623;SDS011;9959;49.798;9.928;2022-08-19T05:48:08;19.67;;;12.25;;
19623;SDS011;9959;49.798;9.928;2022-08-19T05:50:39;22.25;;;12.82;;
19623;SDS011;9959;49.798;9.928;2022-08-19T05:53:08;24.98;;;12.57;;
19623;SDS011;9959;49.798;9.928;2022-08-19T05:55:36;24.70;;;12.40;;
19623;SDS011;9959;49.798;9.928;2022-08-19T05:58:05;22.58;;;11.80;;
19623;SDS011;9959;49.798;9.928;2022-08-19T06:00:34;21.67;;;12.18;;
19623;SDS011;9959;49.798;9.928;2022-08-19T06:03:02;23.08;;;12.55;;
19623;SDS011;9959;49.798;9.928;2022-08-19T06:05:39;24.25;;;12.50;;
19623;SDS011;9959;49.798;9.928;2022-08-19T06:08:17;20.33;;;11.82;;
19623;SDS011;9959;49.798;9.928;2022-08-19T06:11:11;19.90;;;12.27;;
19623;SDS011;9959;49.798;9.928;2022-08-19T06:13:41;21.38;;;11.85;;
19623;SDS011;9959;49.798;9.928;2022-08-19T06:16:11;21.63;;;11.40;;
19623;SDS011;9959;49.798;9.928;2022-08-19T06:18:39;25.13;;;12.95;;
19623;SDS011;9959;49.798;9.928;2022-08-19T06:21:08;20.00;;;11.13;;
19623;SDS011;9959;49.798;9.928;2022-08-19T06:23:36;21.05;;;11.85;;
19623;SDS011;9959;49.798;9.928;2022-08-19T06:26:05;17.73;;;11.07;;
19623;SDS011;9959;49.798;9.928;2022-08-19T06:28:34;19.55;;;11.90;;
19623;SDS011;9959;49.798;9.928;2022-08-19T06:31:05;17.98;;;10.43;;
19623;SDS011;9959;49.798;9.928;2022-08-19T06:33:34;19.80;;;11.25;;
19623;SDS011;9959;49.798;9.928;2022-08-19T06:36:02;19.13;;;10.73;;
19623;SDS011;9959;49.798;9.928;2022-08-19T06:38:32;19.08;;;11.50;;
19623;SDS011;9959;49.798;9.928;2022-08-19T06:41:01;17.35;;;10.40;;
19623;SDS011;9959;49.798;9.928;2022-08-19T06:43:33;17.33;;;10.38;;
19623;SDS011;9959;49.798;9.928;2022-08-19T06:46:11;17.55;;;11.27;;
19623;SDS011;9959;49.798;9.928;2022-08-19T06:48:41;23.60;;;10.52;;
19623;SDS011;9959;49.798;9.928;2022-08-19T06:51:11;17.35;;;10.88;;
19623;SDS011;9959;49.798;9.928;2022-08-19T06:53:46;16.58;;;10.25;;
19623;SDS011;9959;49.798;9.928;2022-08-19T06:56:20;21.02;;;11.30;;
19623;SDS011;9959;49.798;9.928;2022-08-19T06:58:51;18.48;;;10.63;;
19623;SDS011;9959;49.798;9.928;2022-08-19T07:01:19;19.40;;;11.13;;
19623;SDS011;9959;49.798;9.928;2022-08-19T07:03:47;24.38;;;10.95;;
19623;SDS011;9959;49.798;9.928;2022-08-19T07:06:17;20.88;;;10.52;;
19623;SDS011;9959;49.798;9.928;2022-08-19T07:09:08;19.25;;;10.57;;
19623;SDS011;9959;49.798;9.928;2022-08-19T07:11:37;16.55;;;10.82;;
19623;SDS011;9959;49.798;9.928;2022-08-19T07:14:05;18.98;;;10.07;;
19623;SDS011;9959;49.798;9.928;2022-08-19T07:16:44;17.05;;;10.48;;
19623;SDS011;9959;49.798;9.928;2022-08-19T07:19:13;18.25;;;11.63;;
19623;SDS011;9959;49.798;9.928;2022-08-19T07:21:44;21.45;;;11.57;;
19623;SDS011;9959;49.798;9.928;2022-08-19T07:24:15;20.38;;;11.10;;
19623;SDS011;9959;49.798;9.928;2022-08-19T07:26:44;19.13;;;10.82;;
19623;SDS011;9959;49.798;9.928;2022-08-19T07:29:17;18.52;;;11.40;;
19623;SDS011;9959;49.798;9.928;2022-08-19T07:31:49;17.60;;;10.70;;
19623;SDS011;9959;49.798;9.928;2022-08-19T07:34:19;18.80;;;10.90;;
19623;SDS011;9959;49.798;9.928;2022-08-19T07:36:47;18.27;;;11.38;;
19623;SDS011;9959;49.798;9.928;2022-08-19T07:39:17;19.23;;;11.05;;
19623;SDS011;9959;49.798;9.928;2022-08-19T07:41:48;14.52;;;9.93;;
19623;SDS011;9959;49.798;9.928;2022-08-19T07:44:17;19.30;;;11.25;;
19623;SDS011;9959;49.798;9.928;2022-08-19T07:46:47;21.08;;;10.95;;
19623;SDS011;9959;49.798;9.928;2022-08-19T07:49:18;18.73;;;11.38;;
19623;SDS011;9959;49.798;9.928;2022-08-19T07:51:48;18.83;;;10.85;;
19623;SDS011;9959;49.798;9.928;2022-08-19T07:54:19;20.13;;;11.13;;
19623;SDS011;9959;49.798;9.928;2022-08-19T07:56:49;17.83;;;10.93;;
19623;SDS011;9959;49.798;9.928;2022-08-19T07:59:17;18.02;;;10.00;;
19623;SDS011;9959;49.798;9.928;2022-08-19T08:01:46;18.63;;;11.50;;
19623;SDS011;9959;49.798;9.928;2022-08-19T08:04:16;17.10;;;9.82;;
19623;SDS011;9959;49.798;9.928;2022-08-19T08:07:02;16.48;;;11.00;;
19623;SDS011;9959;49.798;9.928;2022-08-19T08:09:50;16.33;;;9.88;;
19623;SDS011;9959;49.798;9.928;2022-08-19T08:12:25;20.15;;;10.45;;
19623;SDS011;9959;49.798;9.928;2022-08-19T08:15:01;18.42;;;10.57;;
19623;SDS011;9959;49.798;9.928;2022-08-19T08:17:38;14.27;;;9.93;;
19623;SDS011;9959;49.798;9.928;2022-08-19T08:20:17;13.50;;;9.68;;
19623;SDS011;9959;49.798;9.928;2022-08-19T08:22:46;15.88;;;9.88;;
19623;SDS011;9959;49.798;9.928;2022-08-19T08:25:34;14.85;;;9.63;;
19623;SDS011;9959;49.798;9.928;2022-08-19T08:28:04;12.82;;;9.27;;
19623;SDS011;9959;49.798;9.928;2022-08-19T08:30:36;15.23;;;10.00;;
19623;SDS011;9959;49.798;9.928;2022-08-19T08:33:10;15.35;;;9.80;;
19623;SDS011;9959;49.798;9.928;2022-08-19T08:35:39;17.75;;;9.57;;
19623;SDS011;9959;49.798;9.928;2022-08-19T08:38:09;15.02;;;9.85;;
19623;SDS011;9959;49.798;9.928;2022-08-19T08:40:39;14.43;;;9.93;;
19623;SDS011;9959;49.798;9.928;2022-08-19T08:43:18;18.15;;;10.18;;
19623;SDS011;9959;49.798;9.928;2022-08-19T08:45:50;14.85;;;9.52;;
19623;SDS011;9959;49.798;9.928;2022-08-19T08:48:24;14.15;;;9.43;;
19623;SDS011;9959;49.798;9.928;2022-08-19T08:51:02;18.92;;;10.43;;
19623;SDS011;9959;49.798;9.928;2022-08-19T08:53:34;14.43;;;9.45;;
19623;SDS011;9959;49.798;9.928;2022-08-19T08:56:09;15.65;;;9.68;;
19623;SDS011;9959;49.798;9.928;2022-08-19T08:58:43;15.75;;;10.10;;
19623;SDS011;9959;49.798;9.928;2022-08-19T09:01:20;13.38;;;9.18;;
19623;SDS011;9959;49.798;9.928;2022-08-19T09:03:48;14.52;;;9.90;;
19623;SDS011;9959;49.798;9.928;2022-08-19T09:06:18;11.27;;;8.65;;
19623;SDS011;9959;49.798;9.928;2022-08-19T09:08:55;11.30;;;8.48;;
19623;SDS011;9959;49.798;9.928;2022-08-19T09:11:45;12.75;;;8.23;;
19623;SDS011;9959;49.798;9.928;2022-08-19T09:14:23;14.80;;;9.77;;
19623;SDS011;9959;49.798;9.928;2022-08-19T09:17:17;12.73;;;8.80;;
19623;SDS011;9959;49.798;9.928;2022-08-19T09:19:48;14.25;;;8.73;;
19623;SDS011;9959;49.798;9.928;2022-08-19T09:22:19;12.95;;;8.70;;
19623;SDS011;9959;49.798;9.928;2022-08-19T09:24:50;13.82;;;9.38;;
19623;SDS011;9959;49.798;9.928;2022-08-19T09:27:21;14.65;;;8.85;;
19623;SDS011;9959;49.798;9.928;2022-08-19T09:30:09;15.50;;;9.18;;
19623;SDS011;9959;49.798;9.928;2022-08-19T09:32:41;12.18;;;9.10;;
19623;SDS011;9959;49.798;9.928;2022-08-19T09:35:09;13.55;;;8.85;;
19623;SDS011;9959;49.798;9.928;2022-08-19T09:37:38;14.85;;;9.18;;
19623;SDS011;9959;49.798;9.928;2022-08-19T09:40:09;14.57;;;9.95;;
19623;SDS011;9959;49.798;9.928;2022-08-19T09:42:39;14.50;;;8.73;;
19623;SDS011;9959;49.798;9.928;2022-08-19T09:45:18;11.85;;;8.68;;
19623;SDS011;9959;49.798;9.928;2022-08-19T09:47:48;14.80;;;9.02;;
19623;SDS011;9959;49.798;9.928;2022-08-19T09:50:19;13.00;;;8.93;;
19623;SDS011;9959;49.798;9.928;2022-08-19T09:52:49;11.73;;;7.05;;
19623;SDS011;9959;49.798;9.928;2022-08-19T09:55:20;9.98;;;7.07;;
19623;SDS011;9959;49.798;9.928;2022-08-19T09:57:50;10.65;;;7.15;;
19623;SDS011;9959;49.798;9.928;2022-08-19T10:00:21;11.95;;;6.35;;
19623;SDS011;9959;49.798;9.928;2022-08-19T10:02:49;11.77;;;6.38;;
19623;SDS011;9959;49.798;9.928;2022-08-19T10:05:18;9.05;;;6.75;;
19623;SDS011;9959;49.798;9.928;2022-08-19T10:08:07;8.15;;;6.43;;
19623;SDS011;9959;49.798;9.928;2022-08-19T10:10:39;9.13;;;6.53;;
19623;SDS011;9959;49.798;9.928;2022-08-19T10:13:14;9.73;;;6.85;;
19623;SDS011;9959;49.798;9.928;2022-08-19T10:15:44;8.18;;;5.95;;
19623;SDS011;9959;49.798;9.928;2022-08-19T10:18:14;7.63;;;5.85;;
19623;SDS011;9959;49.798;9.928;2022-08-19T10:20:44;9.57;;;6.45;;
19623;SDS011;9959;49.798;9.928;2022-08-19T10:23:17;8.25;;;5.50;;
19623;SDS011;9959;49.798;9.928;2022-08-19T10:25:46;6.15;;;5.13;;
19623;SDS011;9959;49.798;9.928;2022-08-19T10:28:15;8.63;;;5.50;;
19623;SDS011;9959;49.798;9.928;2022-08-19T10:30:44;6.32;;;4.43;;
19623;SDS011;9959;49.798;9.928;2022-08-19T10:33:13;9.05;;;5.05;;
19623;SDS011;9959;49.798;9.928;2022-08-19T10:36:01;6.55;;;4.85;;
19623;SDS011;9959;49.798;9.928;2022-08-19T10:38:31;7.00;;;4.28;;
19623;SDS011;9959;49.798;9.928;2022-08-19T10:41:06;7.45;;;4.63;;
19623;SDS011;9959;49.798;9.928;2022-08-19T10:43:36;5.82;;;4.65;;
19623;SDS011;9959;49.798;9.928;2022-08-19T10:46:06;5.70;;;4.65;;
19623;SDS011;9959;49.798;9.928;2022-08-19T10:48:39;5.78;;;3.95;;
19623;SDS011;9959;49.798;9.928;2022-08-19T10:51:07;6.80;;;4.32;;
19623;SDS011;9959;49.798;9.928;2022-08-19T10:53:54;4.60;;;4.00;;
19623;SDS011;9959;49.798;9.928;2022-08-19T10:56:24;4.75;;;4.13;;
19623;SDS011;9959;49.798;9.928;2022-08-19T10:59:11;5.07;;;4.20;;
19623;SDS011;9959;49.798;9.928;2022-08-19T11:01:40;4.38;;;3.97;;
19623;SDS011;9959;49.798;9.928;2022-08-19T11:04:09;4.95;;;3.95;;
19623;SDS011;9959;49.798;9.928;2022-08-19T11:06:40;7.93;;;3.78;;
19623;SDS011;9959;49.798;9.928;2022-08-19T11:09:09;6.25;;;3.47;;
19623;SDS011;9959;49.798;9.928;2022-08-19T11:11:38;5.00;;;3.70;;
19623;SDS011;9959;49.798;9.928;2022-08-19T11:14:07;8.00;;;3.83;;
19623;SDS011;9959;49.798;9.928;2022-08-19T11:16:37;5.13;;;3.58;;
19623;SDS011;9959;49.798;9.928;2022-08-19T11:19:06;5.07;;;3.80;;
19623;SDS011;9959;49.798;9.928;2022-08-19T11:21:35;5.07;;;3.70;;
19623;SDS011;9959;49.798;9.928;2022-08-19T11:24:06;8.20;;;4.43;;
19623;SDS011;9959;49.798;9.928;2022-08-19T11:26:37;10.75;;;6.63;;
19623;SDS011;9959;49.798;9.928;2022-08-19T11:29:07;6.00;;;4.18;;
19623;SDS011;9959;49.798;9.928;2022-08-19T11:31:40;6.68;;;4.40;;
19623;SDS011;9959;49.798;9.928;2022-08-19T11:34:10;6.32;;;3.88;;
19623;SDS011;9959;49.798;9.928;2022-08-19T11:36:41;5.45;;;4.25;;
19623;SDS011;9959;49.798;9.928;2022-08-19T11:39:12;6.70;;;4.10;;
19623;SDS011;9959;49.798;9.928;2022-08-19T11:41:41;4.13;;;3.72;;
19623;SDS011;9959;49.798;9.928;2022-08-19T11:44:09;5.20;;;4.05;;
19623;SDS011;9959;49.798;9.928;2022-08-19T11:46:42;5.55;;;3.80;;
19623;SDS011;9959;49.798;9.928;2022-08-19T11:49:12;5.85;;;3.80;;
19623;SDS011;9959;49.798;9.928;2022-08-19T11:51:41;4.53;;;3.45;;
19623;SDS011;9959;49.798;9.928;2022-08-19T11:54:10;5.88;;;3.70;;
19623;SDS011;9959;49.798;9.928;2022-08-19T11:56:39;7.10;;;3.88;;
19623;SDS011;9959;49.798;9.928;2022-08-19T11:59:08;5.10;;;3.33;;
19623;SDS011;9959;49.798;9.928;2022-08-19T12:01:41;4.28;;;3.30;;
19623;SDS011;9959;49.798;9.928;2022-08-19T12:04:09;5.93;;;3.38;;
19623;SDS011;9959;49.798;9.928;2022-08-19T12:06:39;6.95;;;3.40;;
19623;SDS011;9959;49.798;9.928;2022-08-19T12:09:08;4.88;;;3.10;;
19623;SDS011;9959;49.798;9.928;2022-08-19T12:11:37;5.43;;;3.88;;
19623;SDS011;9959;49.798;9.928;2022-08-19T12:14:10;4.75;;;3.90;;
19623;SDS011;9959;49.798;9.928;2022-08-19T12:16:43;4.20;;;3.80;;
19623;SDS011;9959;49.798;9.928;2022-08-19T12:19:17;5.72;;;3.83;;
19623;SDS011;9959;49.798;9.928;2022-08-19T12:21:48;5.65;;;4.53;;
19623;SDS011;9959;49.798;9.928;2022-08-19T12:24:16;4.93;;;3.90;;
19623;SDS011;9959;49.798;9.928;2022-08-19T12:26:49;5.25;;;3.35;;
19623;SDS011;9959;49.798;9.928;2022-08-19T12:29:19;4.78;;;3.60;;
19623;SDS011;9959;49.798;9.928;2022-08-19T12:31:51;4.50;;;3.50;;
19623;SDS011;9959;49.798;9.928;2022-08-19T12:34:19;4.30;;;3.40;;
19623;SDS011;9959;49.798;9.928;2022-08-19T12:36:47;5.38;;;3.35;;
19623;SDS011;9959;49.798;9.928;2022-08-19T12:39:16;4.28;;;3.35;;
19623;SDS011;9959;49.798;9.928;2022-08-19T12:41:44;4.05;;;3.45;;
19623;SDS011;9959;49.798;9.928;2022-08-19T12:44:20;4.82;;;3.40;;
19623;SDS011;9959;49.798;9.928;2022-08-19T12:46:56;6.05;;;3.55;;
19623;SDS011;9959;49.798;9.928;2022-08-19T12:49:24;5.15;;;3.67;;
19623;SDS011;9959;49.798;9.928;2022-08-19T12:52:14;5.90;;;3.65;;
19623;SDS011;9959;49.798;9.928;2022-08-19T12:54:48;4.03;;;3.08;;
19623;SDS011;9959;49.798;9.928;2022-08-19T12:57:20;7.45;;;3.28;;
19623;SDS011;9959;49.798;9.928;2022-08-19T12:59:59;3.33;;;2.75;;
19623;SDS011;9959;49.798;9.928;2022-08-19T13:02:34;3.63;;;2.40;;
19623;SDS011;9959;49.798;9.928;2022-08-19T13:05:04;3.58;;;3.13;;
19623;SDS011;9959;49.798;9.928;2022-08-19T13:07:34;3.03;;;2.60;;
19623;SDS011;9959;49.798;9.928;2022-08-19T13:10:04;2.85;;;2.55;;
19623;SDS011;9959;49.798;9.928;2022-08-19T13:12:33;3.00;;;2.70;;
19623;SDS011;9959;49.798;9.928;2022-08-19T13:15:01;3.90;;;3.13;;
19623;SDS011;9959;49.798;9.928;2022-08-19T13:17:38;3.83;;;2.30;;
19623;SDS011;9959;49.798;9.928;2022-08-19T13:20:07;2.70;;;2.50;;
19623;SDS011;9959;49.798;9.928;2022-08-19T13:22:37;3.30;;;2.50;;
19623;SDS011;9959;49.798;9.928;2022-08-19T13:25:05;3.30;;;2.70;;
19623;SDS011;9959;49.798;9.928;2022-08-19T13:27:34;4.50;;;2.70;;
19623;SDS011;9959;49.798;9.928;2022-08-19T13:30:03;4.57;;;2.35;;
19623;SDS011;9959;49.798;9.928;2022-08-19T13:32:52;2.90;;;2.65;;
19623;SDS011;9959;49.798;9.928;2022-08-19T13:35:37;3.08;;;2.40;;
19623;SDS011;9959;49.798;9.928;2022-08-19T13:38:06;4.13;;;2.70;;
19623;SDS011;9959;49.798;9.928;2022-08-19T13:40:37;2.42;;;2.00;;
19623;SDS011;9959;49.798;9.928;2022-08-19T13:43:06;3.92;;;2.45;;
19623;SDS011;9959;49.798;9.928;2022-08-19T13:45:48;4.25;;;2.75;;
19623;SDS011;9959;49.798;9.928;2022-08-19T13:48:18;4.32;;;2.72;;
19623;SDS011;9959;49.798;9.928;2022-08-19T13:50:46;2.88;;;2.67;;
19623;SDS011;9959;49.798;9.928;2022-08-19T13:53:15;3.10;;;2.80;;
19623;SDS011;9959;49.798;9.928;2022-08-19T13:55:44;3.20;;;2.90;;
19623;SDS011;9959;49.798;9.928;2022-08-19T13:58:12;3.30;;;2.80;;
19623;SDS011;9959;49.798;9.928;2022-08-19T14:00:41;4.03;;;2.70;;
19623;SDS011;9959;49.798;9.928;2022-08-19T14:03:12;2.90;;;2.58;;
19623;SDS011;9959;49.798;9.928;2022-08-19T14:05:42;3.88;;;2.50;;
19623;SDS011;9959;49.798;9.928;2022-08-19T14:08:10;3.55;;;2.35;;
19623;SDS011;9959;49.798;9.928;2022-08-19T14:10:40;3.00;;;2.70;;
19623;SDS011;9959;49.798;9.928;2022-08-19T14:13:12;5.88;;;2.28;;
19623;SDS011;9959;49.798;9.928;2022-08-19T14:15:42;3.42;;;2.28;;
19623;SDS011;9959;49.798;9.928;2022-08-19T14:18:10;2.65;;;2.45;;
19623;SDS011;9959;49.798;9.928;2022-08-19T14:20:38;2.63;;;2.42;;
19623;SDS011;9959;49.798;9.928;2022-08-19T14:23:08;2.25;;;2.05;;
19623;SDS011;9959;49.798;9.928;2022-08-19T14:25:37;2.92;;;2.35;;
19623;SDS011;9959;49.798;9.928;2022-08-19T14:28:04;3.72;;;2.42;;
19623;SDS011;9959;49.798;9.928;2022-08-19T14:30:34;2.63;;;2.38;;
19623;SDS011;9959;49.798;9.928;2022-08-19T14:33:04;2.55;;;2.35;;
19623;SDS011;9959;49.798;9.928;2022-08-19T14:35:33;2.33;;;2.13;;
19623;SDS011;9959;49.798;9.928;2022-08-19T14:38:02;2.97;;;2.38;;
19623;SDS011;9959;49.798;9.928;2022-08-19T14:40:32;2.55;;;2.25;;
19623;SDS011;9959;49.798;9.928;2022-08-19T14:43:02;3.38;;;2.20;;
19623;SDS011;9959;49.798;9.928;2022-08-19T14:45:31;2.97;;;2.58;;
19623;SDS011;9959;49.798;9.928;2022-08-19T14:48:02;2.70;;;2.47;;
19623;SDS011;9959;49.798;9.928;2022-08-19T14:50:30;2.92;;;2.20;;
19623;SDS011;9959;49.798;9.928;2022-08-19T14:52:59;2.85;;;2.35;;
19623;SDS011;9959;49.798;9.928;2022-08-19T14:55:39;2.25;;;2.10;;
19623;SDS011;9959;49.798;9.928;2022-08-19T14:58:08;6.05;;;2.40;;
19623;SDS011;9959;49.798;9.928;2022-08-19T15:00:55;5.30;;;2.80;;
19623;SDS011;9959;49.798;9.928;2022-08-19T15:03:23;2.53;;;2.15;;
19623;SDS011;9959;49.798;9.928;2022-08-19T15:05:52;3.67;;;2.40;;
19623;SDS011;9959;49.798;9.928;2022-08-19T15:08:20;2.60;;;2.40;;
19623;SDS011;9959;49.798;9.928;2022-08-19T15:10:50;1.88;;;1.77;;